sensor_id;sensor_type;location;lat;lon;timestamp;P1;durP1;ratioP1;P2;durP2;ratioP2
151;SDS011;68;48.792;9.164;2023-07-02T00:02:13;25.37;;;14.40;;
151;SDS011;68;48.792;9.164;2023-07-02T00:04:40;24.60;;;11.37;;
151;SDS011;68;48.792;9.164;2023-07-02T00:07:08;24.37;;;11.90;;
151;SDS011;68;48.792;9.164;2023-07-02T00:09:35;24.70;;;12.67;;
151;SDS011;68;48.792;9.164;2023-07-02T00:12:02;25.90;;;14.27;;
151;SDS011;68;48.792;9.164;2023-07-02T00:14:29;25.53;;;13.97;;
151;SDS011;68;48.792;9.164;2023-07-02T00:16:56;27.43;;;12.50;;
151;SDS011;68;48.792;9.164;2023-07-02T00:19:23;24.87;;;13.50;;
151;SDS011;68;48.792;9.164;2023-07-02T00:21:53;26.37;;;14.07;;
151;SDS011;68;48.792;9.164;2023-07-02T00:24:21;24.03;;;11.90;;
151;SDS011;68;48.792;9.164;2023-07-02T00:26:49;25.33;;;12.27;;
151;SDS011;68;48.792;9.164;2023-07-02T00:29:18;24.07;;;11.57;;
151;SDS011;68;48.792;9.164;2023-07-02T00:31:45;24.60;;;13.27;;
151;SDS011;68;48.792;9.164;2023-07-02T00:34:11;24.40;;;13.97;;
151;SDS011;68;48.792;9.164;2023-07-02T00:36:38;26.80;;;14.40;;
151;SDS011;68;48.792;9.164;2023-07-02T00:39:06;28.40;;;13.43;;
151;SDS011;68;48.792;9.164;2023-07-02T00:41:34;26.60;;;14.23;;
151;SDS011;68;48.792;9.164;2023-07-02T00:44:03;23.97;;;14.90;;
151;SDS011;68;48.792;9.164;2023-07-02T00:46:30;26.07;;;12.33;;
151;SDS011;68;48.792;9.164;2023-07-02T00:48:57;24.90;;;13.30;;
151;SDS011;68;48.792;9.164;2023-07-02T00:51:26;24.67;;;13.70;;
151;SDS011;68;48.792;9.164;2023-07-02T00:53:54;23.60;;;12.00;;
151;SDS011;68;48.792;9.164;2023-07-02T00:56:22;25.40;;;14.07;;
151;SDS011;68;48.792;9.164;2023-07-02T00:58:51;27.67;;;14.67;;
151;SDS011;68;48.792;9.164;2023-07-02T01:01:24;24.53;;;14.50;;
151;SDS011;68;48.792;9.164;2023-07-02T01:03:53;25.27;;;14.30;;
151;SDS011;68;48.792;9.164;2023-07-02T01:06:24;24.60;;;14.07;;
151;SDS011;68;48.792;9.164;2023-07-02T01:08:56;27.70;;;15.37;;
151;SDS011;68;48.792;9.164;2023-07-02T01:11:25;27.20;;;14.20;;
151;SDS011;68;48.792;9.164;2023-07-02T01:13:57;24.80;;;12.73;;
151;SDS011;68;48.792;9.164;2023-07-02T01:16:29;25.63;;;14.23;;
151;SDS011;68;48.792;9.164;2023-07-02T01:18:58;24.77;;;13.77;;
151;SDS011;68;48.792;9.164;2023-07-02T01:21:30;25.33;;;15.30;;
151;SDS011;68;48.792;9.164;2023-07-02T01:23:58;24.73;;;13.70;;
151;SDS011;68;48.792;9.164;2023-07-02T01:26:27;30.40;;;16.63;;
151;SDS011;68;48.792;9.164;2023-07-02T01:28:55;25.93;;;14.90;;
151;SDS011;68;48.792;9.164;2023-07-02T01:31:22;28.50;;;14.17;;
151;SDS011;68;48.792;9.164;2023-07-02T01:33:50;27.30;;;15.27;;
151;SDS011;68;48.792;9.164;2023-07-02T01:36:17;27.30;;;14.37;;
151;SDS011;68;48.792;9.164;2023-07-02T01:38:45;25.00;;;14.47;;
151;SDS011;68;48.792;9.164;2023-07-02T01:41:12;22.97;;;11.87;;
151;SDS011;68;48.792;9.164;2023-07-02T01:43:38;24.30;;;13.67;;
151;SDS011;68;48.792;9.164;2023-07-02T01:46:05;25.40;;;13.17;;
151;SDS011;68;48.792;9.164;2023-07-02T01:48:32;24.30;;;11.83;;
151;SDS011;68;48.792;9.164;2023-07-02T01:50:59;25.83;;;14.60;;
151;SDS011;68;48.792;9.164;2023-07-02T01:53:25;26.77;;;15.07;;
151;SDS011;68;48.792;9.164;2023-07-02T01:55:53;25.73;;;13.73;;
151;SDS011;68;48.792;9.164;2023-07-02T01:58:20;24.17;;;14.37;;
151;SDS011;68;48.792;9.164;2023-07-02T02:00:47;25.10;;;13.97;;
151;SDS011;68;48.792;9.164;2023-07-02T02:03:17;31.43;;;12.40;;
151;SDS011;68;48.792;9.164;2023-07-02T02:05:44;27.43;;;14.90;;
151;SDS011;68;48.792;9.164;2023-07-02T02:08:10;25.20;;;12.27;;
151;SDS011;68;48.792;9.164;2023-07-02T02:10:37;22.80;;;12.87;;
151;SDS011;68;48.792;9.164;2023-07-02T02:13:05;25.63;;;15.17;;
151;SDS011;68;48.792;9.164;2023-07-02T02:15:32;28.40;;;13.43;;
151;SDS011;68;48.792;9.164;2023-07-02T02:17:59;24.20;;;12.70;;
151;SDS011;68;48.792;9.164;2023-07-02T02:20:28;23.27;;;12.60;;
151;SDS011;68;48.792;9.164;2023-07-02T02:22:55;25.80;;;12.90;;
151;SDS011;68;48.792;9.164;2023-07-02T02:25:21;25.50;;;13.10;;
151;SDS011;68;48.792;9.164;2023-07-02T02:27:48;23.87;;;11.70;;
151;SDS011;68;48.792;9.164;2023-07-02T02:30:16;23.20;;;12.63;;
151;SDS011;68;48.792;9.164;2023-07-02T02:32:43;23.90;;;11.73;;
151;SDS011;68;48.792;9.164;2023-07-02T02:35:10;24.10;;;13.37;;
151;SDS011;68;48.792;9.164;2023-07-02T02:37:37;22.10;;;11.03;;
151;SDS011;68;48.792;9.164;2023-07-02T02:40:04;25.37;;;12.80;;
151;SDS011;68;48.792;9.164;2023-07-02T02:42:34;25.67;;;10.70;;
151;SDS011;68;48.792;9.164;2023-07-02T02:45:01;24.60;;;13.20;;
151;SDS011;68;48.792;9.164;2023-07-02T02:47:29;25.07;;;13.87;;
151;SDS011;68;48.792;9.164;2023-07-02T02:49:56;24.93;;;12.10;;
151;SDS011;68;48.792;9.164;2023-07-02T02:52:23;24.93;;;11.97;;
151;SDS011;68;48.792;9.164;2023-07-02T02:54:51;24.10;;;14.07;;
151;SDS011;68;48.792;9.164;2023-07-02T02:57:18;25.90;;;14.70;;
151;SDS011;68;48.792;9.164;2023-07-02T02:59:45;26.17;;;15.30;;
151;SDS011;68;48.792;9.164;2023-07-02T03:02:12;24.27;;;12.60;;
151;SDS011;68;48.792;9.164;2023-07-02T03:04:40;23.20;;;12.07;;
151;SDS011;68;48.792;9.164;2023-07-02T03:07:09;24.60;;;12.93;;
151;SDS011;68;48.792;9.164;2023-07-02T03:09:36;25.03;;;12.63;;
151;SDS011;68;48.792;9.164;2023-07-02T03:12:03;26.13;;;13.50;;
151;SDS011;68;48.792;9.164;2023-07-02T03:14:30;27.07;;;13.37;;
151;SDS011;68;48.792;9.164;2023-07-02T03:16:56;24.60;;;12.93;;
151;SDS011;68;48.792;9.164;2023-07-02T03:19:25;27.07;;;13.77;;
151;SDS011;68;48.792;9.164;2023-07-02T03:21:54;25.30;;;12.50;;
151;SDS011;68;48.792;9.164;2023-07-02T03:24:20;26.47;;;15.20;;
151;SDS011;68;48.792;9.164;2023-07-02T03:26:47;24.73;;;13.40;;
151;SDS011;68;48.792;9.164;2023-07-02T03:29:14;29.37;;;15.70;;
151;SDS011;68;48.792;9.164;2023-07-02T03:31:41;25.67;;;14.40;;
151;SDS011;68;48.792;9.164;2023-07-02T03:34:08;33.40;;;17.30;;
151;SDS011;68;48.792;9.164;2023-07-02T03:36:35;28.10;;;13.80;;
151;SDS011;68;48.792;9.164;2023-07-02T03:39:04;28.87;;;15.97;;
151;SDS011;68;48.792;9.164;2023-07-02T03:41:31;27.77;;;15.60;;
151;SDS011;68;48.792;9.164;2023-07-02T03:43:58;25.77;;;14.00;;
151;SDS011;68;48.792;9.164;2023-07-02T03:46:24;26.87;;;15.90;;
151;SDS011;68;48.792;9.164;2023-07-02T03:48:51;29.60;;;18.25;;
151;SDS011;68;48.792;9.164;2023-07-02T03:51:18;27.87;;;17.07;;
151;SDS011;68;48.792;9.164;2023-07-02T03:53:45;31.30;;;19.23;;
151;SDS011;68;48.792;9.164;2023-07-02T03:56:15;31.77;;;19.80;;
151;SDS011;68;48.792;9.164;2023-07-02T03:58:42;29.83;;;18.73;;
151;SDS011;68;48.792;9.164;2023-07-02T04:01:09;29.37;;;18.10;;
151;SDS011;68;48.792;9.164;2023-07-02T04:03:36;29.50;;;18.27;;
151;SDS011;68;48.792;9.164;2023-07-02T04:06:03;30.35;;;18.48;;
151;SDS011;68;48.792;9.164;2023-07-02T04:08:30;34.90;;;19.77;;
151;SDS011;68;48.792;9.164;2023-07-02T04:10:57;33.10;;;17.00;;
151;SDS011;68;48.792;9.164;2023-07-02T04:13:25;35.58;;;17.60;;
151;SDS011;68;48.792;9.164;2023-07-02T04:15:52;35.90;;;18.30;;
151;SDS011;68;48.792;9.164;2023-07-02T04:18:19;30.50;;;16.40;;
151;SDS011;68;48.792;9.164;2023-07-02T04:20:45;26.63;;;14.10;;
151;SDS011;68;48.792;9.164;2023-07-02T04:23:12;36.53;;;16.13;;
151;SDS011;68;48.792;9.164;2023-07-02T04:25:39;29.23;;;17.33;;
151;SDS011;68;48.792;9.164;2023-07-02T04:28:06;29.60;;;15.30;;
151;SDS011;68;48.792;9.164;2023-07-02T04:30:34;34.40;;;16.97;;
151;SDS011;68;48.792;9.164;2023-07-02T04:33:01;30.58;;;15.13;;
151;SDS011;68;48.792;9.164;2023-07-02T04:35:28;28.27;;;13.90;;
151;SDS011;68;48.792;9.164;2023-07-02T04:37:55;31.73;;;15.10;;
151;SDS011;68;48.792;9.164;2023-07-02T04:40:22;29.27;;;16.30;;
151;SDS011;68;48.792;9.164;2023-07-02T04:42:49;31.00;;;16.93;;
151;SDS011;68;48.792;9.164;2023-07-02T04:45:22;27.00;;;14.97;;
151;SDS011;68;48.792;9.164;2023-07-02T04:47:52;27.60;;;14.40;;
151;SDS011;68;48.792;9.164;2023-07-02T04:50:19;27.77;;;16.00;;
151;SDS011;68;48.792;9.164;2023-07-02T04:52:45;29.57;;;13.67;;
151;SDS011;68;48.792;9.164;2023-07-02T04:55:12;28.33;;;16.30;;
151;SDS011;68;48.792;9.164;2023-07-02T04:57:39;37.40;;;19.27;;
151;SDS011;68;48.792;9.164;2023-07-02T05:00:06;30.10;;;14.67;;
151;SDS011;68;48.792;9.164;2023-07-02T05:02:34;28.63;;;14.37;;
151;SDS011;68;48.792;9.164;2023-07-02T05:05:02;33.10;;;15.17;;
151;SDS011;68;48.792;9.164;2023-07-02T05:07:29;27.90;;;14.93;;
151;SDS011;68;48.792;9.164;2023-07-02T05:09:56;28.10;;;15.30;;
151;SDS011;68;48.792;9.164;2023-07-02T05:12:22;29.17;;;14.60;;
151;SDS011;68;48.792;9.164;2023-07-02T05:14:49;31.77;;;17.17;;
151;SDS011;68;48.792;9.164;2023-07-02T05:17:16;24.67;;;12.47;;
151;SDS011;68;48.792;9.164;2023-07-02T05:19:43;31.63;;;16.17;;
151;SDS011;68;48.792;9.164;2023-07-02T05:22:11;31.47;;;18.53;;
151;SDS011;68;48.792;9.164;2023-07-02T05:24:38;28.17;;;16.20;;
151;SDS011;68;48.792;9.164;2023-07-02T05:27:06;23.33;;;11.40;;
151;SDS011;68;48.792;9.164;2023-07-02T05:29:32;28.33;;;14.20;;
151;SDS011;68;48.792;9.164;2023-07-02T05:31:59;28.13;;;15.00;;
151;SDS011;68;48.792;9.164;2023-07-02T05:34:26;29.90;;;18.27;;
151;SDS011;68;48.792;9.164;2023-07-02T05:36:52;34.20;;;18.47;;
151;SDS011;68;48.792;9.164;2023-07-02T05:39:21;31.47;;;15.03;;
151;SDS011;68;48.792;9.164;2023-07-02T05:41:47;32.53;;;16.00;;
151;SDS011;68;48.792;9.164;2023-07-02T05:44:14;26.23;;;14.07;;
151;SDS011;68;48.792;9.164;2023-07-02T05:46:41;30.27;;;14.10;;
151;SDS011;68;48.792;9.164;2023-07-02T05:49:08;33.90;;;15.60;;
151;SDS011;68;48.792;9.164;2023-07-02T05:51:34;31.27;;;16.67;;
151;SDS011;68;48.792;9.164;2023-07-02T05:54:01;29.50;;;14.90;;
151;SDS011;68;48.792;9.164;2023-07-02T05:56:29;28.30;;;13.77;;
151;SDS011;68;48.792;9.164;2023-07-02T05:58:56;31.43;;;17.00;;
151;SDS011;68;48.792;9.164;2023-07-02T06:01:23;32.20;;;14.07;;
151;SDS011;68;48.792;9.164;2023-07-02T06:03:49;29.97;;;15.80;;
151;SDS011;68;48.792;9.164;2023-07-02T06:06:16;34.00;;;17.37;;
151;SDS011;68;48.792;9.164;2023-07-02T06:08:43;28.90;;;14.60;;
151;SDS011;68;48.792;9.164;2023-07-02T06:11:10;34.83;;;16.07;;
151;SDS011;68;48.792;9.164;2023-07-02T06:13:40;35.50;;;16.07;;
151;SDS011;68;48.792;9.164;2023-07-02T06:16:07;36.07;;;15.07;;
151;SDS011;68;48.792;9.164;2023-07-02T06:18:33;35.33;;;17.87;;
151;SDS011;68;48.792;9.164;2023-07-02T06:21:00;32.67;;;16.50;;
151;SDS011;68;48.792;9.164;2023-07-02T06:23:29;34.60;;;14.17;;
151;SDS011;68;48.792;9.164;2023-07-02T06:25:56;33.27;;;16.20;;
151;SDS011;68;48.792;9.164;2023-07-02T06:28:24;36.00;;;17.77;;
151;SDS011;68;48.792;9.164;2023-07-02T06:30:52;36.70;;;17.60;;
151;SDS011;68;48.792;9.164;2023-07-02T06:33:19;37.50;;;16.00;;
151;SDS011;68;48.792;9.164;2023-07-02T06:35:45;34.10;;;16.80;;
151;SDS011;68;48.792;9.164;2023-07-02T06:38:12;32.70;;;14.83;;
151;SDS011;68;48.792;9.164;2023-07-02T06:40:39;37.17;;;18.93;;
151;SDS011;68;48.792;9.164;2023-07-02T06:43:06;37.77;;;17.97;;
151;SDS011;68;48.792;9.164;2023-07-02T06:45:32;34.10;;;15.40;;
151;SDS011;68;48.792;9.164;2023-07-02T06:48:00;37.33;;;17.07;;
151;SDS011;68;48.792;9.164;2023-07-02T06:50:27;37.23;;;18.07;;
151;SDS011;68;48.792;9.164;2023-07-02T06:52:54;40.30;;;15.83;;
151;SDS011;68;48.792;9.164;2023-07-02T06:55:21;40.87;;;15.27;;
151;SDS011;68;48.792;9.164;2023-07-02T06:57:48;36.23;;;17.57;;
151;SDS011;68;48.792;9.164;2023-07-02T07:00:15;41.20;;;19.27;;
151;SDS011;68;48.792;9.164;2023-07-02T07:02:42;40.30;;;19.27;;
151;SDS011;68;48.792;9.164;2023-07-02T07:05:10;34.93;;;16.20;;
151;SDS011;68;48.792;9.164;2023-07-02T07:07:38;34.90;;;17.10;;
151;SDS011;68;48.792;9.164;2023-07-02T07:10:09;40.83;;;17.80;;
151;SDS011;68;48.792;9.164;2023-07-02T07:12:36;39.10;;;17.60;;
151;SDS011;68;48.792;9.164;2023-07-02T07:15:06;38.87;;;17.30;;
151;SDS011;68;48.792;9.164;2023-07-02T07:17:33;43.83;;;19.13;;
151;SDS011;68;48.792;9.164;2023-07-02T07:20:00;36.53;;;18.10;;
151;SDS011;68;48.792;9.164;2023-07-02T07:22:34;39.60;;;18.40;;
151;SDS011;68;48.792;9.164;2023-07-02T07:25:00;35.80;;;16.97;;
151;SDS011;68;48.792;9.164;2023-07-02T07:27:30;41.60;;;17.87;;
151;SDS011;68;48.792;9.164;2023-07-02T07:29:57;40.03;;;20.10;;
151;SDS011;68;48.792;9.164;2023-07-02T07:32:23;38.83;;;19.23;;
151;SDS011;68;48.792;9.164;2023-07-02T07:34:50;42.17;;;18.57;;
151;SDS011;68;48.792;9.164;2023-07-02T07:37:17;44.80;;;18.40;;
151;SDS011;68;48.792;9.164;2023-07-02T07:39:45;41.30;;;20.27;;
151;SDS011;68;48.792;9.164;2023-07-02T07:42:12;56.30;;;21.33;;
151;SDS011;68;48.792;9.164;2023-07-02T07:44:41;43.90;;;19.80;;
151;SDS011;68;48.792;9.164;2023-07-02T07:47:08;43.20;;;18.93;;
151;SDS011;68;48.792;9.164;2023-07-02T07:49:35;50.03;;;19.53;;
151;SDS011;68;48.792;9.164;2023-07-02T07:52:02;42.03;;;17.20;;
151;SDS011;68;48.792;9.164;2023-07-02T07:54:31;42.97;;;20.40;;
151;SDS011;68;48.792;9.164;2023-07-02T07:57:01;43.77;;;20.00;;
151;SDS011;68;48.792;9.164;2023-07-02T07:59:28;41.20;;;19.60;;
151;SDS011;68;48.792;9.164;2023-07-02T08:01:57;49.50;;;20.00;;
151;SDS011;68;48.792;9.164;2023-07-02T08:04:24;43.60;;;17.87;;
151;SDS011;68;48.792;9.164;2023-07-02T08:06:51;44.33;;;20.87;;
151;SDS011;68;48.792;9.164;2023-07-02T08:09:19;38.87;;;18.47;;
151;SDS011;68;48.792;9.164;2023-07-02T08:11:46;47.10;;;18.70;;
151;SDS011;68;48.792;9.164;2023-07-02T08:14:14;43.00;;;19.33;;
151;SDS011;68;48.792;9.164;2023-07-02T08:16:44;46.20;;;19.97;;
151;SDS011;68;48.792;9.164;2023-07-02T08:19:14;48.37;;;19.10;;
151;SDS011;68;48.792;9.164;2023-07-02T08:21:41;45.60;;;19.67;;
151;SDS011;68;48.792;9.164;2023-07-02T08:24:07;41.23;;;19.07;;
151;SDS011;68;48.792;9.164;2023-07-02T08:26:34;39.63;;;18.60;;
151;SDS011;68;48.792;9.164;2023-07-02T08:29:02;43.80;;;20.60;;
151;SDS011;68;48.792;9.164;2023-07-02T08:31:30;43.90;;;17.40;;
151;SDS011;68;48.792;9.164;2023-07-02T08:33:57;43.10;;;18.40;;
151;SDS011;68;48.792;9.164;2023-07-02T08:36:23;49.70;;;19.50;;
151;SDS011;68;48.792;9.164;2023-07-02T08:38:50;39.97;;;17.97;;
151;SDS011;68;48.792;9.164;2023-07-02T08:41:17;46.97;;;19.10;;
151;SDS011;68;48.792;9.164;2023-07-02T08:43:44;44.67;;;17.70;;
151;SDS011;68;48.792;9.164;2023-07-02T08:46:11;49.80;;;19.53;;
151;SDS011;68;48.792;9.164;2023-07-02T08:48:39;41.47;;;18.37;;
151;SDS011;68;48.792;9.164;2023-07-02T08:51:07;37.40;;;15.80;;
151;SDS011;68;48.792;9.164;2023-07-02T08:53:33;42.47;;;18.80;;
151;SDS011;68;48.792;9.164;2023-07-02T08:56:00;36.97;;;16.40;;
151;SDS011;68;48.792;9.164;2023-07-02T08:58:28;38.17;;;15.53;;
151;SDS011;68;48.792;9.164;2023-07-02T09:01:08;41.03;;;18.50;;
151;SDS011;68;48.792;9.164;2023-07-02T09:03:37;37.27;;;16.80;;
151;SDS011;68;48.792;9.164;2023-07-02T09:06:06;35.83;;;15.03;;
151;SDS011;68;48.792;9.164;2023-07-02T09:08:34;42.37;;;14.23;;
151;SDS011;68;48.792;9.164;2023-07-02T09:11:08;35.43;;;14.67;;
151;SDS011;68;48.792;9.164;2023-07-02T09:13:45;43.23;;;17.50;;
151;SDS011;68;48.792;9.164;2023-07-02T09:16:22;41.90;;;15.90;;
151;SDS011;68;48.792;9.164;2023-07-02T09:18:57;43.73;;;15.07;;
151;SDS011;68;48.792;9.164;2023-07-02T09:21:27;35.20;;;15.23;;
151;SDS011;68;48.792;9.164;2023-07-02T09:23:54;35.80;;;13.77;;
151;SDS011;68;48.792;9.164;2023-07-02T09:26:21;42.10;;;15.53;;
151;SDS011;68;48.792;9.164;2023-07-02T09:28:49;36.23;;;15.67;;
151;SDS011;68;48.792;9.164;2023-07-02T09:31:16;40.70;;;15.37;;
151;SDS011;68;48.792;9.164;2023-07-02T09:33:42;35.67;;;15.27;;
151;SDS011;68;48.792;9.164;2023-07-02T09:36:10;38.10;;;15.47;;
151;SDS011;68;48.792;9.164;2023-07-02T09:38:39;35.40;;;14.37;;
151;SDS011;68;48.792;9.164;2023-07-02T09:41:06;37.30;;;15.23;;
151;SDS011;68;48.792;9.164;2023-07-02T09:43:33;39.20;;;15.30;;
151;SDS011;68;48.792;9.164;2023-07-02T09:46:03;38.93;;;14.70;;
151;SDS011;68;48.792;9.164;2023-07-02T09:48:32;36.27;;;13.87;;
151;SDS011;68;48.792;9.164;2023-07-02T09:51:01;36.07;;;14.00;;
151;SDS011;68;48.792;9.164;2023-07-02T09:53:29;37.57;;;15.47;;
151;SDS011;68;48.792;9.164;2023-07-02T09:55:57;37.00;;;16.70;;
151;SDS011;68;48.792;9.164;2023-07-02T09:58:25;34.80;;;14.50;;
151;SDS011;68;48.792;9.164;2023-07-02T10:00:52;37.30;;;14.70;;
151;SDS011;68;48.792;9.164;2023-07-02T10:03:27;38.13;;;14.50;;
151;SDS011;68;48.792;9.164;2023-07-02T10:06:02;34.87;;;13.57;;
151;SDS011;68;48.792;9.164;2023-07-02T10:08:30;39.47;;;15.50;;
151;SDS011;68;48.792;9.164;2023-07-02T10:11:07;37.20;;;14.00;;
151;SDS011;68;48.792;9.164;2023-07-02T10:13:35;35.80;;;14.00;;
151;SDS011;68;48.792;9.164;2023-07-02T10:16:05;41.27;;;13.10;;
151;SDS011;68;48.792;9.164;2023-07-02T10:18:32;41.00;;;14.60;;
151;SDS011;68;48.792;9.164;2023-07-02T10:20:59;38.80;;;15.33;;
151;SDS011;68;48.792;9.164;2023-07-02T10:23:33;42.23;;;15.43;;
151;SDS011;68;48.792;9.164;2023-07-02T10:26:10;42.20;;;15.73;;
151;SDS011;68;48.792;9.164;2023-07-02T10:28:41;40.90;;;15.07;;
151;SDS011;68;48.792;9.164;2023-07-02T10:31:17;36.67;;;14.53;;
151;SDS011;68;48.792;9.164;2023-07-02T10:33:45;40.03;;;15.23;;
151;SDS011;68;48.792;9.164;2023-07-02T10:36:17;43.53;;;15.50;;
151;SDS011;68;48.792;9.164;2023-07-02T10:38:45;42.50;;;16.90;;
151;SDS011;68;48.792;9.164;2023-07-02T10:41:22;40.17;;;13.87;;
151;SDS011;68;48.792;9.164;2023-07-02T10:43:50;38.87;;;14.83;;
151;SDS011;68;48.792;9.164;2023-07-02T10:46:20;38.93;;;15.87;;
151;SDS011;68;48.792;9.164;2023-07-02T10:48:51;39.50;;;15.47;;
151;SDS011;68;48.792;9.164;2023-07-02T10:51:18;37.87;;;14.20;;
151;SDS011;68;48.792;9.164;2023-07-02T10:53:46;39.00;;;15.67;;
151;SDS011;68;48.792;9.164;2023-07-02T10:56:23;43.00;;;16.50;;
151;SDS011;68;48.792;9.164;2023-07-02T10:58:50;39.47;;;15.97;;
151;SDS011;68;48.792;9.164;2023-07-02T11:01:21;36.17;;;15.10;;
151;SDS011;68;48.792;9.164;2023-07-02T11:03:55;44.53;;;15.30;;
151;SDS011;68;48.792;9.164;2023-07-02T11:06:22;37.90;;;13.60;;
151;SDS011;68;48.792;9.164;2023-07-02T11:08:49;35.73;;;14.47;;
151;SDS011;68;48.792;9.164;2023-07-02T11:11:15;36.97;;;14.63;;
151;SDS011;68;48.792;9.164;2023-07-02T11:13:47;41.83;;;14.43;;
151;SDS011;68;48.792;9.164;2023-07-02T11:16:24;38.70;;;14.17;;
151;SDS011;68;48.792;9.164;2023-07-02T11:18:52;40.00;;;13.47;;
151;SDS011;68;48.792;9.164;2023-07-02T11:21:20;39.80;;;15.07;;
151;SDS011;68;48.792;9.164;2023-07-02T11:23:47;41.83;;;14.50;;
151;SDS011;68;48.792;9.164;2023-07-02T11:26:13;37.67;;;14.97;;
151;SDS011;68;48.792;9.164;2023-07-02T11:28:50;44.20;;;14.73;;
151;SDS011;68;48.792;9.164;2023-07-02T11:31:26;36.90;;;13.07;;
151;SDS011;68;48.792;9.164;2023-07-02T11:33:53;39.70;;;14.20;;
151;SDS011;68;48.792;9.164;2023-07-02T11:36:20;39.77;;;14.47;;
151;SDS011;68;48.792;9.164;2023-07-02T11:38:48;36.50;;;13.40;;
151;SDS011;68;48.792;9.164;2023-07-02T11:41:15;37.83;;;13.30;;
151;SDS011;68;48.792;9.164;2023-07-02T11:43:42;36.40;;;13.77;;
151;SDS011;68;48.792;9.164;2023-07-02T11:46:10;45.43;;;13.77;;
151;SDS011;68;48.792;9.164;2023-07-02T11:48:37;39.10;;;13.90;;
151;SDS011;68;48.792;9.164;2023-07-02T11:51:03;38.43;;;13.97;;
151;SDS011;68;48.792;9.164;2023-07-02T11:53:30;44.83;;;14.90;;
151;SDS011;68;48.792;9.164;2023-07-02T11:55:57;38.50;;;14.10;;
151;SDS011;68;48.792;9.164;2023-07-02T11:58:24;39.17;;;13.73;;
151;SDS011;68;48.792;9.164;2023-07-02T12:00:50;36.80;;;13.40;;
151;SDS011;68;48.792;9.164;2023-07-02T12:03:19;36.77;;;13.03;;
151;SDS011;68;48.792;9.164;2023-07-02T12:05:45;39.77;;;13.20;;
151;SDS011;68;48.792;9.164;2023-07-02T12:08:12;37.10;;;13.80;;
151;SDS011;68;48.792;9.164;2023-07-02T12:10:40;39.33;;;13.20;;
151;SDS011;68;48.792;9.164;2023-07-02T12:13:06;35.50;;;12.90;;
151;SDS011;68;48.792;9.164;2023-07-02T12:15:33;36.73;;;13.17;;
151;SDS011;68;48.792;9.164;2023-07-02T12:18:00;39.03;;;14.40;;
151;SDS011;68;48.792;9.164;2023-07-02T12:20:28;36.50;;;13.40;;
151;SDS011;68;48.792;9.164;2023-07-02T12:22:55;40.63;;;14.03;;
151;SDS011;68;48.792;9.164;2023-07-02T12:25:22;36.10;;;13.60;;
151;SDS011;68;48.792;9.164;2023-07-02T12:27:49;39.70;;;14.30;;
151;SDS011;68;48.792;9.164;2023-07-02T12:30:16;42.40;;;14.20;;
151;SDS011;68;48.792;9.164;2023-07-02T12:32:43;42.13;;;14.13;;
151;SDS011;68;48.792;9.164;2023-07-02T12:35:10;39.93;;;14.07;;
151;SDS011;68;48.792;9.164;2023-07-02T12:37:43;37.53;;;13.80;;
151;SDS011;68;48.792;9.164;2023-07-02T12:40:11;42.10;;;14.00;;
151;SDS011;68;48.792;9.164;2023-07-02T12:42:38;36.97;;;14.13;;
151;SDS011;68;48.792;9.164;2023-07-02T12:45:05;38.07;;;14.73;;
151;SDS011;68;48.792;9.164;2023-07-02T12:47:33;40.43;;;14.73;;
151;SDS011;68;48.792;9.164;2023-07-02T12:49:59;39.80;;;14.13;;
151;SDS011;68;48.792;9.164;2023-07-02T12:52:28;40.30;;;14.30;;
151;SDS011;68;48.792;9.164;2023-07-02T12:54:56;37.47;;;13.87;;
151;SDS011;68;48.792;9.164;2023-07-02T12:57:23;47.63;;;14.13;;
151;SDS011;68;48.792;9.164;2023-07-02T12:59:51;38.80;;;13.97;;
151;SDS011;68;48.792;9.164;2023-07-02T13:02:18;38.37;;;13.47;;
151;SDS011;68;48.792;9.164;2023-07-02T13:04:44;40.60;;;14.17;;
151;SDS011;68;48.792;9.164;2023-07-02T13:07:11;36.57;;;13.30;;
151;SDS011;68;48.792;9.164;2023-07-02T13:09:38;44.90;;;14.57;;
151;SDS011;68;48.792;9.164;2023-07-02T13:12:06;43.80;;;14.60;;
151;SDS011;68;48.792;9.164;2023-07-02T13:14:34;40.63;;;15.57;;
151;SDS011;68;48.792;9.164;2023-07-02T13:17:01;39.03;;;14.27;;
151;SDS011;68;48.792;9.164;2023-07-02T13:19:29;41.07;;;14.50;;
151;SDS011;68;48.792;9.164;2023-07-02T13:21:56;39.17;;;14.00;;
151;SDS011;68;48.792;9.164;2023-07-02T13:24:23;37.70;;;13.43;;
151;SDS011;68;48.792;9.164;2023-07-02T13:26:50;38.63;;;14.13;;
151;SDS011;68;48.792;9.164;2023-07-02T13:29:18;36.70;;;12.33;;
151;SDS011;68;48.792;9.164;2023-07-02T13:31:45;38.37;;;13.83;;
151;SDS011;68;48.792;9.164;2023-07-02T13:34:12;39.00;;;15.20;;
151;SDS011;68;48.792;9.164;2023-07-02T13:36:38;37.00;;;14.23;;
151;SDS011;68;48.792;9.164;2023-07-02T13:39:05;39.23;;;14.73;;
151;SDS011;68;48.792;9.164;2023-07-02T13:41:32;43.93;;;15.17;;
151;SDS011;68;48.792;9.164;2023-07-02T13:43:59;38.20;;;14.03;;
151;SDS011;68;48.792;9.164;2023-07-02T13:46:27;39.40;;;13.90;;
151;SDS011;68;48.792;9.164;2023-07-02T13:48:53;39.23;;;14.10;;
151;SDS011;68;48.792;9.164;2023-07-02T13:51:20;41.70;;;14.50;;
151;SDS011;68;48.792;9.164;2023-07-02T13:53:47;43.87;;;14.43;;
151;SDS011;68;48.792;9.164;2023-07-02T13:56:14;39.27;;;13.70;;
151;SDS011;68;48.792;9.164;2023-07-02T13:58:57;33.60;;;12.80;;
151;SDS011;68;48.792;9.164;2023-07-02T14:01:27;37.67;;;13.73;;
151;SDS011;68;48.792;9.164;2023-07-02T14:03:54;38.17;;;13.70;;
151;SDS011;68;48.792;9.164;2023-07-02T14:06:21;39.93;;;14.40;;
151;SDS011;68;48.792;9.164;2023-07-02T14:08:48;37.83;;;13.60;;
151;SDS011;68;48.792;9.164;2023-07-02T14:11:15;35.63;;;13.67;;
151;SDS011;68;48.792;9.164;2023-07-02T14:13:42;36.50;;;13.00;;
151;SDS011;68;48.792;9.164;2023-07-02T14:16:10;38.87;;;13.80;;
151;SDS011;68;48.792;9.164;2023-07-02T14:18:37;44.40;;;14.80;;
151;SDS011;68;48.792;9.164;2023-07-02T14:21:04;37.77;;;14.97;;
151;SDS011;68;48.792;9.164;2023-07-02T14:23:31;37.30;;;14.07;;
151;SDS011;68;48.792;9.164;2023-07-02T14:25:58;38.50;;;14.03;;
151;SDS011;68;48.792;9.164;2023-07-02T14:28:25;44.40;;;14.90;;
151;SDS011;68;48.792;9.164;2023-07-02T14:30:57;39.77;;;14.87;;
151;SDS011;68;48.792;9.164;2023-07-02T14:33:27;39.83;;;14.60;;
151;SDS011;68;48.792;9.164;2023-07-02T14:35:55;43.03;;;15.20;;
151;SDS011;68;48.792;9.164;2023-07-02T14:38:22;40.67;;;14.93;;
151;SDS011;68;48.792;9.164;2023-07-02T14:40:49;35.57;;;13.90;;
151;SDS011;68;48.792;9.164;2023-07-02T14:43:16;43.13;;;14.07;;
151;SDS011;68;48.792;9.164;2023-07-02T14:45:45;36.37;;;14.67;;
151;SDS011;68;48.792;9.164;2023-07-02T14:48:13;38.53;;;14.63;;
151;SDS011;68;48.792;9.164;2023-07-02T14:50:47;40.50;;;15.10;;
151;SDS011;68;48.792;9.164;2023-07-02T14:53:15;48.23;;;14.03;;
151;SDS011;68;48.792;9.164;2023-07-02T14:55:41;36.20;;;14.87;;
151;SDS011;68;48.792;9.164;2023-07-02T14:58:09;41.70;;;15.03;;
151;SDS011;68;48.792;9.164;2023-07-02T15:00:42;36.27;;;13.80;;
151;SDS011;68;48.792;9.164;2023-07-02T15:03:09;37.23;;;14.37;;
151;SDS011;68;48.792;9.164;2023-07-02T15:05:36;37.30;;;14.90;;
151;SDS011;68;48.792;9.164;2023-07-02T15:08:04;42.40;;;15.30;;
151;SDS011;68;48.792;9.164;2023-07-02T15:10:31;43.63;;;15.13;;
151;SDS011;68;48.792;9.164;2023-07-02T15:12:58;40.00;;;13.77;;
151;SDS011;68;48.792;9.164;2023-07-02T15:15:24;39.60;;;14.23;;
151;SDS011;68;48.792;9.164;2023-07-02T15:17:51;38.17;;;14.70;;
151;SDS011;68;48.792;9.164;2023-07-02T15:20:18;39.37;;;14.37;;
151;SDS011;68;48.792;9.164;2023-07-02T15:22:45;41.90;;;14.73;;
151;SDS011;68;48.792;9.164;2023-07-02T15:25:13;44.17;;;15.57;;
151;SDS011;68;48.792;9.164;2023-07-02T15:27:40;43.03;;;14.20;;
151;SDS011;68;48.792;9.164;2023-07-02T15:30:07;39.77;;;15.03;;
151;SDS011;68;48.792;9.164;2023-07-02T15:32:34;40.37;;;15.07;;
151;SDS011;68;48.792;9.164;2023-07-02T15:35:00;38.03;;;14.33;;